Muncie, IL (61857)

3:52 PM CDT on September 01, 2015 (GMT -0500)
K9ADL | | Change Station
CLOSE
Current Station
Personal Weather Station
Location: Oakwood, IL
Elevation: 725 ft
Nearby Weather Stations

Elev 725 ft 40.17 °N, 87.77 °W | Updated 4 seconds ago

Mostly Cloudy
Mostly Cloudy
84.6 °F
Feels Like 92 °F
N
5.8
Wind Variable Wind from West
Gusts 5.8 mph

Today
High -- | Low -- °F
--% Chance of Precip.
Yesterday
High -- | Low -- °F
Precip. -- in
6:18 AM 7:23 PM
Waning Gibbous, 86% visible
Pressure 30.06 in
Visibility 7.0 miles
Clouds Clear
Heat Index 92 °F
Dew Point 74 °F
Humidity 71%
Rainfall 0.86 in
Snow Depth Not available.
UV 5 out of 12
Pollen 10.40 out of 12
Air Quality Not available.
Flu Activity Not available.
METAR KDNV 012035Z AUTO 18007KT 7SM RA CLR 27/21 A3006 RMK AO2 T02650212
Pressure 30.06 in
Visibility 7.0 miles
Clouds Clear
Heat Index 92 °F
Dew Point 74 °F
Humidity 71%
Rainfall 0.86 in
Snow Depth Not available.
UV 5 out of 12
Pollen 10.40 out of 12
Air Quality Not available.
Flu Activity Not available.
METAR KDNV 012035Z AUTO 18007KT 7SM RA CLR 27/21 A3006 RMK AO2 T02650212

10-Day Weather Forecast

×

Almanac

Astronomy

Sep. 01, 2015 Rise Set
Actual Time
Civil Twilight
Nautical Twilight
Astronomical Twilight
Moon
Length of Visible Light
Length of Day
Tomorrow will be .
, % of the Moon is Illuminated

Today's Extremes

State Highs State Lows

Community

WunderPhotos

Upload Photos

1,851,608 photos uploaded!

WunderBlogs® & News

Nearby

Air Quality

  Air Quality AQ Index Pollutant
Not available.

Snow Depth

Station Depth Elevation

Earthquake Activity

City Distance Mag. Time & Date
Minimum magnitude displayed is 2.5.

Coastal Water Temperatures

Place Temperature

Stations

Nearby Weather Stations

Station Location Temp. Windchill Dew Point Humidity Wind Precip. Elev Updated Type